Lubbock, TX (79424)

11:32 AM CST en Marzo 06, 2015 (GMT -0600)
Monterey | Change Station
CLOSE
Current Station
Estación meteorológica personal
Location: Lubbock, TX
Altura: 3281 ft
Estaciones meteorológicas cercanas

Alt 3281 ft 33.52 °N, 101.96 °W | Updated 13 minutes ago

Despejado
Despejado
42.3 ° F
Sensación térmica 37 ° F
N
9.4
Viento Variable Viento desde Sur

Hoy
Alta -- | Baja -- ° F
--% Posibilidad de precipitaciones
Ayer
Alta -- | Baja -- ° F
Precip. -- pul
7:10 AM 6:48 PM
Luna llena, 99% visible
Presión 30.46 pul
Visibilidad 10.0 Millas
Nubes Baja 25000 ft
Vientos helados 37 ° F
Punto de rocío 30 ° F
Humedad 61%
Precipitaciones pul
Espesor de la nieve No disponible.
UV 5 de una escala de 12
Polen 6.00 de una escala de 12
Calidad del aire No disponible.
Flu Activity No disponible.
METAR KLBB 061653Z 21014KT 10SM FEW250 05/M03 A3044 RMK AO2 SLP314 T00501028

More Conditions Fewer Conditions

Presión 30.46 pul
Visibilidad 10.0 Millas
Nubes Baja 25000 ft
Vientos helados 37 ° F
Punto de rocío 30 ° F
Humedad 61%
Precipitaciones pul
Espesor de la nieve No disponible.
UV 5 de una escala de 12
Polen 6.00 de una escala de 12
Calidad del aire No disponible.
Flu Activity No disponible.
METAR KLBB 061653Z 21014KT 10SM FEW250 05/M03 A3044 RMK AO2 SLP314 T00501028

More Conditions Fewer Conditions

10-Day Weather Forecast

Almanac

Astronomía

Mar. 06, 2015 Salida Puesta
Hora real
Crepúsculo civil
Crepúsculo náutico
Crepúsculo astronómico
Luna
Horas de luz
Horas de luz
Tomorrow will be .
, % of the Moon is Illuminated

Extremos de hoy

Máximos del estado Bajos del estado

Community

WunderPhotos

Upload Photos

1,803,345 ¡fotos cargadas!

WunderBlogs® & News

Nearby

Calidad del aire

  Calidad del aire Índice AQ Contaminante
Not available.

Grosos de nieve

Estación Profundido Altura

Actividad de terremotos

Ciudad Distance Mag. Tiempo y dato
Magnitud mínima muestra es 2,5.

Temperaturas de aguas costeras

Lugar Temperatura

Estaciones meteorológicas cercanas